Terminal Aerodrome Forecast
Issued by NWS

Home | Current Version | Previous Version | Text Only | Print | Product List | Glossary Off
Versions: 1 2 3 4 5 6 7 8 9 10 11 12 13 14 15 16 17 18 19 20 21 22 23 24

884
FTUS43 KMPX 241120
TAFRWF
TAF
KRWF 241120Z 2412/2512 27010KT 6SM BR SCT002 BKN007
      TEMPO 2412/2413 1SM BR VV002
     FM241300 15007KT P6SM SCT007 BKN250
     FM241500 18014G23KT P6SM SCT050 BKN250
     FM242100 19014G22KT P6SM VCSH SCT050 BKN100
     FM250000 27007KT P6SM VCSH BKN080
     FM250300 25005KT P6SM -TSRA OVC025CB
     FM250600 34003KT 4SM -SHRA BR OVC010=

USA.gov is the U.S. government's official web portal to all federal, state and local government web resources and services.